createdAt,value
2018-04-24T00:00:05.731Z,14.00
2018-04-24T00:02:33.390Z,14.00
2018-04-24T00:05:00.922Z,14.00
2018-04-24T00:07:28.414Z,14.10
2018-04-24T00:09:55.964Z,14.00
2018-04-24T00:12:23.642Z,14.10
2018-04-24T00:14:51.201Z,14.10
2018-04-24T00:17:19.484Z,14.10
2018-04-24T00:19:47.019Z,14.10
2018-04-24T00:22:14.724Z,14.10
2018-04-24T00:24:42.257Z,14.10
2018-04-24T00:27:09.803Z,14.10
2018-04-24T00:29:37.297Z,14.10
2018-04-24T00:32:04.830Z,14.10
2018-04-24T00:34:32.327Z,14.10
2018-04-24T00:36:59.866Z,14.10
2018-04-24T00:39:27.568Z,14.10
2018-04-24T00:41:55.113Z,14.10
2018-04-24T00:44:22.620Z,14.00
2018-04-24T00:46:50.163Z,14.10
2018-04-24T00:49:17.665Z,14.00
2018-04-24T00:51:45.962Z,14.00
2018-04-24T00:54:13.465Z,13.90
2018-04-24T00:56:41.000Z,13.90
2018-04-24T00:59:08.540Z,13.90
2018-04-24T01:01:36.039Z,13.90
2018-04-24T01:04:03.574Z,13.90
2018-04-24T01:06:31.073Z,13.90
2018-04-24T01:08:58.614Z,13.90
2018-04-24T01:11:26.114Z,13.90
2018-04-24T01:13:53.989Z,13.80
2018-04-24T01:16:21.492Z,13.80
2018-04-24T01:18:49.034Z,13.80
2018-04-24T01:21:16.527Z,13.80
2018-04-24T01:23:44.057Z,13.70
2018-04-24T01:26:11.552Z,13.70
2018-04-24T01:28:39.362Z,13.80
2018-04-24T01:31:06.858Z,13.80
2018-04-24T01:33:34.358Z,13.80
2018-04-24T01:36:02.662Z,13.70
2018-04-24T01:38:30.202Z,13.70
2018-04-24T01:40:57.698Z,13.70
2018-04-24T01:43:25.239Z,13.80
2018-04-24T01:45:52.738Z,13.80
2018-04-24T01:48:20.267Z,13.80
2018-04-24T01:50:47.773Z,13.80
2018-04-24T01:53:15.482Z,13.70
2018-04-24T01:55:42.993Z,13.70
2018-04-24T01:58:11.266Z,13.70
2018-04-24T02:00:40.466Z,13.60
2018-04-24T02:03:08.261Z,13.60
2018-04-24T02:05:35.753Z,13.60
2018-04-24T02:08:03.266Z,13.60
2018-04-24T02:10:31.554Z,13.50
2018-04-24T02:12:59.527Z,13.50
2018-04-24T02:15:27.040Z,13.50
2018-04-24T02:17:54.536Z,13.50
2018-04-24T02:20:22.079Z,13.50
2018-04-24T02:22:49.713Z,13.50
2018-04-24T02:25:17.248Z,13.50
2018-04-24T02:27:44.743Z,13.50
2018-04-24T02:30:12.303Z,13.40
2018-04-24T02:32:39.850Z,13.30
2018-04-24T02:35:07.359Z,13.30
2018-04-24T02:37:34.855Z,13.30
2018-04-24T02:40:02.386Z,13.30
2018-04-24T02:42:29.883Z,13.30
2018-04-24T02:44:57.411Z,13.20
2018-04-24T02:47:24.905Z,13.20
2018-04-24T02:49:52.433Z,13.20
2018-04-24T02:52:19.939Z,13.20
2018-04-24T02:54:48.237Z,13.20
2018-04-24T02:57:15.748Z,13.20
2018-04-24T02:59:43.296Z,13.20
2018-04-24T03:02:10.853Z,13.20
2018-04-24T03:04:38.391Z,13.10
2018-04-24T03:07:05.890Z,13.10
2018-04-24T03:09:33.431Z,13.00
2018-04-24T03:12:00.946Z,12.90
2018-04-24T03:14:28.482Z,12.80
2018-04-24T03:16:56.753Z,12.70
2018-04-24T03:19:24.554Z,12.70
2018-04-24T03:21:52.083Z,12.70
2018-04-24T03:24:20.359Z,12.60
2018-04-24T03:26:48.663Z,12.60
2018-04-24T03:29:16.159Z,12.60
2018-04-24T03:31:43.752Z,12.60
2018-04-24T03:34:11.251Z,12.50
2018-04-24T03:36:38.797Z,12.50
2018-04-24T03:39:06.294Z,12.40
2018-04-24T03:41:33.827Z,12.40
2018-04-24T03:44:01.326Z,12.30
2018-04-24T03:46:28.858Z,12.30
2018-04-24T03:48:56.377Z,12.30
2018-04-24T03:51:24.683Z,12.30
2018-04-24T03:53:52.186Z,12.30
2018-04-24T03:56:19.743Z,12.30
2018-04-24T03:58:47.261Z,12.40
2018-04-24T04:01:14.926Z,12.40
2018-04-24T04:03:42.426Z,12.40
2018-04-24T04:06:10.012Z,12.40
2018-04-24T04:08:37.538Z,12.40
2018-04-24T04:11:05.085Z,12.40
2018-04-24T04:13:32.695Z,12.50
2018-04-24T04:16:00.309Z,12.50
2018-04-24T04:18:42.899Z,12.60
2018-04-24T04:21:22.498Z,12.60
2018-04-24T04:24:02.011Z,12.70
2018-04-24T04:26:29.608Z,12.70
2018-04-24T04:28:58.002Z,12.80
2018-04-24T04:31:25.553Z,12.80
2018-04-24T04:33:53.052Z,12.90
2018-04-24T04:36:20.584Z,12.90
2018-04-24T04:38:48.087Z,12.90
2018-04-24T04:41:15.639Z,12.90
2018-04-24T04:43:43.162Z,12.90
2018-04-24T04:46:10.715Z,13.00
2018-04-24T04:48:38.282Z,13.00
2018-04-24T04:51:05.839Z,13.10
2018-04-24T04:53:33.425Z,13.20
2018-04-24T04:56:00.999Z,13.30
2018-04-24T04:58:29.245Z,13.40
2018-04-24T05:00:56.786Z,13.40
2018-04-24T05:03:24.288Z,13.50
2018-04-24T05:05:51.834Z,13.50
2018-04-24T05:08:19.340Z,13.60
2018-04-24T05:10:46.878Z,13.70
2018-04-24T05:13:14.517Z,13.70
2018-04-24T05:15:42.254Z,13.80
2018-04-24T05:18:09.980Z,13.80
2018-04-24T05:20:37.543Z,13.90
2018-04-24T05:23:06.002Z,14.10
2018-04-24T05:25:33.658Z,14.10
2018-04-24T05:28:01.242Z,14.20
2018-04-24T05:30:28.759Z,14.30
2018-04-24T05:32:57.010Z,14.40
2018-04-24T05:35:24.548Z,14.50
2018-04-24T05:37:52.850Z,14.60
2018-04-24T05:40:20.369Z,14.60
2018-04-24T05:42:48.035Z,14.70
2018-04-24T05:45:15.574Z,14.70
2018-04-24T05:47:44.128Z,14.80
2018-04-24T05:50:12.618Z,14.90
2018-04-24T05:52:40.905Z,15.00
2018-04-24T05:55:09.114Z,15.10
2018-04-24T05:57:37.501Z,15.20
2018-04-24T06:00:05.964Z,15.20
2018-04-24T06:02:33.548Z,15.30
2018-04-24T06:05:01.056Z,15.40
2018-04-24T06:07:28.626Z,15.50
2018-04-24T06:09:56.124Z,15.80
2018-04-24T06:12:23.622Z,15.90
2018-04-24T06:14:51.172Z,16.10
2018-04-24T06:17:18.668Z,16.20
2018-04-24T06:19:46.209Z,16.30
2018-04-24T06:22:13.874Z,16.50
2018-04-24T06:24:41.403Z,16.40
2018-04-24T06:27:08.897Z,16.30
2018-04-24T06:29:36.516Z,16.20
2018-04-24T06:32:04.007Z,16.20
2018-04-24T06:34:31.510Z,16.10
2018-04-24T06:36:59.820Z,16.10
2018-04-24T06:39:27.323Z,16.10
2018-04-24T06:41:54.864Z,16.10
2018-04-24T06:44:22.375Z,16.10
2018-04-24T06:46:49.918Z,16.10
2018-04-24T06:49:17.419Z,16.20
2018-04-24T06:51:44.985Z,16.30
2018-04-24T06:54:12.487Z,16.30
2018-04-24T06:56:40.033Z,16.40
2018-04-24T06:59:07.536Z,16.50
2018-04-24T07:01:35.080Z,16.60
2018-04-24T07:04:02.757Z,16.80
2018-04-24T07:06:30.333Z,17.00
2018-04-24T07:08:57.817Z,17.20
2018-04-24T07:11:25.353Z,17.30
2018-04-24T07:13:52.855Z,17.40
2018-04-24T07:16:21.153Z,17.20
2018-04-24T07:18:48.671Z,17.20
2018-04-24T07:21:16.171Z,17.30
2018-04-24T07:23:43.705Z,17.50
2018-04-24T07:26:12.064Z,17.70
2018-04-24T07:28:39.786Z,17.90
2018-04-24T07:31:07.282Z,18.00
2018-04-24T07:33:34.825Z,18.10
2018-04-24T07:36:02.362Z,18.20
2018-04-24T07:38:29.911Z,18.40
2018-04-24T07:40:57.415Z,18.50
2018-04-24T07:43:24.956Z,18.50
2018-04-24T07:45:52.502Z,18.60
2018-04-24T07:48:20.034Z,18.60
2018-04-24T07:50:47.552Z,18.70
2018-04-24T07:53:15.175Z,18.80
2018-04-24T07:55:42.684Z,18.80
2018-04-24T07:58:10.189Z,18.80
2018-04-24T08:00:37.755Z,18.70
2018-04-24T08:03:05.254Z,18.80
2018-04-24T08:05:32.797Z,18.80
2018-04-24T08:08:00.291Z,19.10
2018-04-24T08:10:27.993Z,19.20
2018-04-24T08:12:55.534Z,19.30
2018-04-24T08:15:23.088Z,19.20
2018-04-24T08:17:50.599Z,19.10
2018-04-24T08:20:18.146Z,19.10
2018-04-24T08:22:45.705Z,19.10
2018-04-24T08:25:13.277Z,19.30
2018-04-24T08:27:40.826Z,19.20
2018-04-24T08:30:08.407Z,19.10
2018-04-24T08:32:35.912Z,19.20
2018-04-24T08:35:03.459Z,19.30
2018-04-24T08:37:31.728Z,19.50
2018-04-24T08:40:00.091Z,19.60
2018-04-24T08:42:27.599Z,19.60
2018-04-24T08:44:55.130Z,19.70
2018-04-24T08:47:23.394Z,19.90
2018-04-24T08:49:51.698Z,20.00
2018-04-24T08:52:19.209Z,20.00
2018-04-24T08:54:46.918Z,20.10
2018-04-24T08:57:14.414Z,20.20
2018-04-24T08:59:41.927Z,20.20
2018-04-24T09:02:09.636Z,20.20
2018-04-24T09:04:37.175Z,20.30
2018-04-24T09:07:04.727Z,20.40
2018-04-24T09:09:32.297Z,20.50
2018-04-24T09:11:59.848Z,20.60
2018-04-24T09:14:27.348Z,20.60
2018-04-24T09:16:54.884Z,20.70
2018-04-24T09:19:22.420Z,20.70
2018-04-24T09:21:49.963Z,20.80
2018-04-24T09:24:17.466Z,20.90
2018-04-24T09:26:45.032Z,21.00
2018-04-24T09:29:12.536Z,21.20
2018-04-24T09:31:43.997Z,21.30
2018-04-24T09:34:11.536Z,21.40
2018-04-24T09:36:39.031Z,21.40
2018-04-24T09:39:06.572Z,21.30
2018-04-24T09:41:34.070Z,21.00
2018-04-24T09:44:01.719Z,21.00
2018-04-24T09:46:29.135Z,21.20
2018-04-24T09:48:57.490Z,21.40
2018-04-24T09:51:25.018Z,21.30
2018-04-24T09:53:52.503Z,21.40
2018-04-24T09:56:20.061Z,21.40
2018-04-24T09:58:47.615Z,21.40
2018-04-24T10:01:15.234Z,21.40
2018-04-24T10:03:42.898Z,21.50
2018-04-24T10:06:10.750Z,21.60
2018-04-24T10:08:38.847Z,21.60
2018-04-24T10:11:07.257Z,21.70
2018-04-24T10:13:35.613Z,21.90
2018-04-24T10:16:03.113Z,21.80
2018-04-24T10:18:31.495Z,21.60
2018-04-24T10:20:59.099Z,21.60
2018-04-24T10:23:26.751Z,21.50
2018-04-24T10:25:54.291Z,21.60
2018-04-24T10:28:21.852Z,21.80
2018-04-24T10:30:49.417Z,22.00
2018-04-24T10:33:16.929Z,22.10
2018-04-24T10:35:44.467Z,22.10
2018-04-24T10:38:11.975Z,22.10
2018-04-24T10:40:39.520Z,22.10
2018-04-24T10:43:07.010Z,22.10
2018-04-24T10:45:34.559Z,22.10
2018-04-24T10:48:02.114Z,22.20
2018-04-24T10:50:30.448Z,22.10
2018-04-24T10:52:58.056Z,22.10
2018-04-24T10:55:26.640Z,22.00
2018-04-24T10:57:54.208Z,21.90
2018-04-24T11:00:21.793Z,21.80
2018-04-24T11:02:49.788Z,21.80
2018-04-24T11:05:17.339Z,21.80
2018-04-24T11:07:44.838Z,21.90
2018-04-24T11:10:13.158Z,21.90
2018-04-24T11:12:40.752Z,21.80
2018-04-24T11:15:08.300Z,22.00
2018-04-24T11:17:36.097Z,22.00
2018-04-24T11:20:04.367Z,22.10
2018-04-24T11:22:32.686Z,22.20
2018-04-24T11:25:00.250Z,22.20
2018-04-24T11:27:27.809Z,22.20
2018-04-24T11:29:55.312Z,22.30
2018-04-24T11:32:22.898Z,22.30
2018-04-24T11:34:51.152Z,22.40
2018-04-24T11:37:18.699Z,22.30
2018-04-24T11:39:46.971Z,22.30
2018-04-24T11:42:14.535Z,22.30
2018-04-24T11:44:42.048Z,22.30
2018-04-24T11:47:09.588Z,22.30
2018-04-24T11:49:37.099Z,22.30
2018-04-24T11:52:04.995Z,22.30
2018-04-24T11:54:33.260Z,22.20
2018-04-24T11:57:00.880Z,22.20
2018-04-24T11:59:28.355Z,22.10
2018-04-24T12:01:55.976Z,22.10
2018-04-24T12:04:23.478Z,22.10
2018-04-24T12:06:51.048Z,22.10
2018-04-24T12:09:18.565Z,22.10
2018-04-24T12:11:46.099Z,22.10
2018-04-24T12:14:14.359Z,22.20
2018-04-24T12:16:41.924Z,22.10
2018-04-24T12:19:09.434Z,22.20
2018-04-24T12:21:37.287Z,22.20
2018-04-24T12:24:04.787Z,22.20
2018-04-24T12:26:32.352Z,22.30
2018-04-24T12:28:59.908Z,22.30
2018-04-24T12:31:28.899Z,22.20
2018-04-24T12:33:56.423Z,22.20
2018-04-24T12:36:23.979Z,22.20
2018-04-24T12:41:25.409Z,22.30
2018-04-24T12:43:53.690Z,22.30
2018-04-24T12:46:22.553Z,22.30
2018-04-24T12:48:50.054Z,22.20
2018-04-24T12:51:17.592Z,22.20
2018-04-24T12:53:45.089Z,22.20
2018-04-24T12:56:12.626Z,22.20
2018-04-24T12:58:40.891Z,22.10
2018-04-24T13:01:09.246Z,22.10
2018-04-24T13:03:36.813Z,22.00
2018-04-24T13:06:04.356Z,21.90
2018-04-24T13:08:31.848Z,21.90
2018-04-24T13:10:59.389Z,21.70
2018-04-24T13:13:26.895Z,21.60
2018-04-24T13:15:54.460Z,21.50
2018-04-24T13:18:22.188Z,21.40
2018-04-24T13:20:50.734Z,21.20
2018-04-24T13:23:18.251Z,21.20
2018-04-24T13:25:45.819Z,21.10
2018-04-24T13:28:14.116Z,21.20
2018-04-24T13:30:41.860Z,21.20
2018-04-24T13:33:09.406Z,21.20
2018-04-24T13:35:36.977Z,21.20
2018-04-24T13:38:04.458Z,21.20
2018-04-24T13:40:31.999Z,21.30
2018-04-24T13:42:59.531Z,21.30
2018-04-24T13:45:27.031Z,21.40
2018-04-24T13:47:54.581Z,21.40
2018-04-24T13:50:22.078Z,21.50
2018-04-24T13:52:49.618Z,21.60
2018-04-24T13:55:17.150Z,21.90
2018-04-24T13:57:44.723Z,22.00
2018-04-24T14:00:12.223Z,22.20
2018-04-24T14:02:39.768Z,22.30
2018-04-24T14:05:07.268Z,22.30
2018-04-24T14:07:34.817Z,22.40
2018-04-24T14:10:03.080Z,22.40
2018-04-24T14:12:31.398Z,22.40
2018-04-24T14:14:58.893Z,22.40
2018-04-24T14:17:26.431Z,22.30
2018-04-24T14:19:53.980Z,22.20
2018-04-24T14:22:21.477Z,22.00
2018-04-24T14:24:49.012Z,21.80
2018-04-24T14:27:16.519Z,21.60
2018-04-24T14:29:44.827Z,21.20
2018-04-24T14:32:12.316Z,21.10
2018-04-24T14:34:39.866Z,21.00
2018-04-24T14:37:07.431Z,20.80
2018-04-24T14:39:34.964Z,20.70
2018-04-24T14:42:02.476Z,20.60
2018-04-24T14:44:30.786Z,20.50
2018-04-24T14:46:58.342Z,20.50
2018-04-24T14:49:25.883Z,20.50
2018-04-24T14:51:54.243Z,20.50
2018-04-24T14:54:21.756Z,20.50
2018-04-24T14:56:49.308Z,20.50
2018-04-24T14:59:16.796Z,20.50
2018-04-24T15:01:44.375Z,20.50
2018-04-24T15:04:11.900Z,20.40
2018-04-24T15:06:42.367Z,20.40
2018-04-24T15:09:10.541Z,20.40
2018-04-24T15:11:39.641Z,20.40
2018-04-24T15:14:08.666Z,20.30
2018-04-24T15:16:36.222Z,20.30
2018-04-24T15:19:03.761Z,20.20
2018-04-24T15:21:32.040Z,20.10
2018-04-24T15:24:00.364Z,20.10
2018-04-24T15:26:27.914Z,20.00
2018-04-24T15:28:55.470Z,20.00
2018-04-24T15:31:22.966Z,19.90
2018-04-24T15:33:50.533Z,19.90
2018-04-24T15:36:18.097Z,19.90
2018-04-24T15:38:45.650Z,19.90
2018-04-24T15:41:13.183Z,19.90
2018-04-24T15:43:40.735Z,19.90
2018-04-24T15:46:08.227Z,19.90
2018-04-24T15:48:35.791Z,19.90
2018-04-24T15:51:03.297Z,19.90
2018-04-24T15:53:30.834Z,19.80
2018-04-24T15:55:59.157Z,19.80
2018-04-24T15:58:26.709Z,19.80
2018-04-24T16:00:54.230Z,19.70
2018-04-24T16:03:22.708Z,19.60
2018-04-24T16:05:50.994Z,19.60
2018-04-24T16:08:18.556Z,19.60
2018-04-24T16:10:46.081Z,19.60
2018-04-24T16:13:13.638Z,19.50
2018-04-24T16:15:41.147Z,19.40
2018-04-24T16:18:08.686Z,19.40
2018-04-24T16:20:36.177Z,19.40
2018-04-24T16:23:03.753Z,19.30
2018-04-24T16:25:31.283Z,19.30
2018-04-24T16:27:58.819Z,19.30
2018-04-24T16:30:26.334Z,19.20
2018-04-24T16:32:53.878Z,19.20
2018-04-24T16:35:21.387Z,19.20
2018-04-24T16:37:48.923Z,19.10
2018-04-24T16:40:16.499Z,19.10
2018-04-24T16:42:44.038Z,19.10
2018-04-24T16:45:11.551Z,19.10
2018-04-24T16:47:39.094Z,19.10
2018-04-24T16:50:06.604Z,19.10
2018-04-24T16:52:34.106Z,19.00
2018-04-24T16:55:01.648Z,19.00
2018-04-24T16:57:29.187Z,19.00
2018-04-24T16:59:56.710Z,19.00
2018-04-24T17:02:24.440Z,18.90
2018-04-24T17:04:52.048Z,18.90
2018-04-24T17:07:19.602Z,18.80
2018-04-24T17:09:47.114Z,18.80
2018-04-24T17:12:15.420Z,18.70
2018-04-24T17:14:42.949Z,18.70
2018-04-24T17:17:10.526Z,18.60
2018-04-24T17:19:38.164Z,18.60
2018-04-24T17:22:06.571Z,18.50
2018-04-24T17:24:34.106Z,18.50
2018-04-24T17:27:02.359Z,18.50
2018-04-24T17:29:29.894Z,18.50
2018-04-24T17:31:57.426Z,18.50
2018-04-24T17:34:24.956Z,18.50
2018-04-24T17:36:53.286Z,18.50
2018-04-24T17:39:20.844Z,18.50
2018-04-24T17:41:48.350Z,18.50
2018-04-24T17:44:16.655Z,18.40
2018-04-24T17:46:44.178Z,18.40
2018-04-24T17:49:11.715Z,18.40
2018-04-24T17:51:39.219Z,18.30
2018-04-24T17:54:07.527Z,18.40
2018-04-24T17:56:35.040Z,18.30
2018-04-24T17:59:02.749Z,18.30
2018-04-24T18:01:30.262Z,18.30
2018-04-24T18:03:58.599Z,18.30
2018-04-24T18:06:26.133Z,18.30
2018-04-24T18:08:53.699Z,18.20
2018-04-24T18:11:21.312Z,18.10
2018-04-24T18:13:48.790Z,18.10
2018-04-24T18:16:17.064Z,18.00
2018-04-24T18:18:45.385Z,17.90
2018-04-24T18:21:12.912Z,17.90
2018-04-24T18:23:40.576Z,17.80
2018-04-24T18:26:08.076Z,17.80
2018-04-24T18:28:35.632Z,17.70
2018-04-24T18:31:03.140Z,17.60
2018-04-24T18:33:30.689Z,17.50
2018-04-24T18:35:58.986Z,17.40
2018-04-24T18:38:26.533Z,17.30
2018-04-24T18:40:54.813Z,17.20
2018-04-24T18:43:22.360Z,17.20
2018-04-24T18:45:50.626Z,17.20
2018-04-24T18:48:18.178Z,17.20
2018-04-24T18:50:45.683Z,17.20
2018-04-24T18:53:13.277Z,17.10
2018-04-24T18:55:41.190Z,17.10
2018-04-24T18:58:08.692Z,17.00
2018-04-24T19:00:36.223Z,17.00
2018-04-24T19:03:03.722Z,16.90
2018-04-24T19:05:31.272Z,16.90
2018-04-24T19:07:58.793Z,16.90
2018-04-24T19:10:26.328Z,16.80
2018-04-24T19:12:53.843Z,16.80
2018-04-24T19:15:21.387Z,16.80
2018-04-24T19:17:48.904Z,16.70
2018-04-24T19:20:17.224Z,16.70
2018-04-24T19:22:44.818Z,16.70
2018-04-24T19:25:18.087Z,16.70
2018-04-24T19:27:45.607Z,16.70
2018-04-24T19:30:13.985Z,16.70
2018-04-24T19:32:41.483Z,16.70
2018-04-24T19:35:09.041Z,16.60
2018-04-24T19:37:36.535Z,16.60
2018-04-24T19:40:09.615Z,16.50
2018-04-24T19:42:37.162Z,16.50
2018-04-24T19:45:04.731Z,16.50
2018-04-24T19:47:32.260Z,16.50
2018-04-24T19:50:05.591Z,16.50
2018-04-24T19:52:33.107Z,16.50
2018-04-24T19:55:06.301Z,16.50
2018-04-24T19:57:33.934Z,16.50
2018-04-24T20:00:02.296Z,16.40
2018-04-24T20:02:29.856Z,16.40
2018-04-24T20:04:57.448Z,16.40
2018-04-24T20:07:24.999Z,16.30
2018-04-24T20:09:53.362Z,16.30
2018-04-24T20:12:20.908Z,16.20
2018-04-24T20:14:48.458Z,16.30
2018-04-24T20:17:17.505Z,16.20
2018-04-24T20:19:45.055Z,16.20
2018-04-24T20:22:12.601Z,16.20
2018-04-24T20:24:41.760Z,16.10
2018-04-24T20:27:09.440Z,16.10
2018-04-24T20:29:37.138Z,16.10
2018-04-24T20:32:04.669Z,16.10
2018-04-24T20:34:32.964Z,16.10
2018-04-24T20:37:01.283Z,16.00
2018-04-24T20:39:28.784Z,16.00
2018-04-24T20:41:56.349Z,16.00
2018-04-24T20:44:24.609Z,16.00
2018-04-24T20:46:52.143Z,16.00
2018-04-24T20:49:19.633Z,15.90
2018-04-24T20:51:47.147Z,15.90
2018-04-24T20:54:14.758Z,15.80
2018-04-24T20:56:42.265Z,15.80
2018-04-24T20:59:09.798Z,15.70
2018-04-24T21:01:37.362Z,15.70
2018-04-24T21:04:05.010Z,15.60
2018-04-24T21:06:32.503Z,15.50
2018-04-24T21:09:00.034Z,15.50
2018-04-24T21:11:27.553Z,15.40
2018-04-24T21:13:55.117Z,15.30
2018-04-24T21:16:22.622Z,15.30
2018-04-24T21:18:51.043Z,15.30
2018-04-24T21:21:18.599Z,15.30
2018-04-24T21:23:46.139Z,15.30
2018-04-24T21:26:13.678Z,15.20
2018-04-24T21:28:41.956Z,15.20
2018-04-24T21:31:09.468Z,15.20
2018-04-24T21:33:37.121Z,15.20
2018-04-24T21:36:05.455Z,15.10
2018-04-24T21:38:32.974Z,15.10
2018-04-24T21:41:00.505Z,15.00
2018-04-24T21:43:28.051Z,15.00
2018-04-24T21:45:55.589Z,15.00
2018-04-24T21:48:23.115Z,15.00
2018-04-24T21:50:50.668Z,15.00
2018-04-24T21:53:18.928Z,14.90
2018-04-24T21:55:46.459Z,14.90
2018-04-24T21:58:13.963Z,14.90
2018-04-24T22:00:41.504Z,14.90
2018-04-24T22:03:09.013Z,14.90
2018-04-24T22:05:36.560Z,15.00
2018-04-24T22:08:04.108Z,15.00
2018-04-24T22:10:32.403Z,15.00
2018-04-24T22:12:59.907Z,15.00
2018-04-24T22:15:27.444Z,15.00
2018-04-24T22:17:54.944Z,15.00
2018-04-24T22:20:22.524Z,15.00
2018-04-24T22:22:50.059Z,14.90
2018-04-24T22:25:17.555Z,15.00
2018-04-24T22:27:45.095Z,14.90
2018-04-24T22:30:12.605Z,14.80
2018-04-24T22:32:40.163Z,14.90
2018-04-24T22:35:07.659Z,14.80
2018-04-24T22:37:35.198Z,14.80
2018-04-24T22:40:02.707Z,14.80
2018-04-24T22:42:30.243Z,14.80
2018-04-24T22:44:57.770Z,14.80
2018-04-24T22:47:25.273Z,14.70
2018-04-24T22:49:53.582Z,14.70
2018-04-24T22:52:21.080Z,14.70
2018-04-24T22:54:48.619Z,14.70
2018-04-24T22:57:16.111Z,14.70
2018-04-24T22:59:44.414Z,14.70
2018-04-24T23:02:11.943Z,14.70
2018-04-24T23:04:39.606Z,14.70
2018-04-24T23:07:07.106Z,14.70
2018-04-24T23:09:34.647Z,14.70
2018-04-24T23:12:13.962Z,14.60
2018-04-24T23:14:54.208Z,14.50
2018-04-24T23:17:33.413Z,14.40
2018-04-24T23:20:12.923Z,14.40
2018-04-24T23:22:41.344Z,14.40
2018-04-24T23:25:08.874Z,14.30
2018-04-24T23:27:36.416Z,14.20
2018-04-24T23:30:03.939Z,14.20
2018-04-24T23:32:32.206Z,14.20
2018-04-24T23:34:59.806Z,14.20
2018-04-24T23:37:27.433Z,14.20
2018-04-24T23:39:55.804Z,14.10
2018-04-24T23:42:23.294Z,14.10
2018-04-24T23:44:50.823Z,14.10
2018-04-24T23:47:18.380Z,14.10
2018-04-24T23:49:45.871Z,14.00
2018-04-24T23:52:13.410Z,14.00
2018-04-24T23:54:41.735Z,13.90
2018-04-24T23:57:09.360Z,13.90
2018-04-24T23:59:37.646Z,13.80
